Time;durP1;ratioP1;P1;durP2;ratioP2;P2;SDS_P1;SDS_P2;PMS_P1;PMS_P2;Temp;Humidity;BMP_temperature;BMP_pressure;BME280_temperature;BME280_humidity;BME280_pressure;Samples;Min_cycle;Max_cycle;Signal;HPM_P1;HPM_P2
2021/12/12 00:02:09;;;;;;;;;3.00;2.00;;;;;-146.25;100.00;57879.81;5073965;28;45405;-71
2021/12/12 00:04:39;;;;;;;;;2.00;2.00;;;;;-146.25;100.00;57879.81;5076761;27;45397;-72
2021/12/12 00:07:10;;;;;;;;;1.67;1.67;;;;;-146.25;100.00;57879.81;5074063;28;45471;-71
2021/12/12 00:09:48;;;;;;;;;1.00;1.00;;;;;-146.25;100.00;57879.81;5075867;27;45443;-71
2021/12/12 00:12:22;;;;;;;;;1.00;1.00;;;;;-146.25;100.00;57879.81;5075205;28;45462;-71
2021/12/12 00:14:48;;;;;;;;;0.00;0.00;;;;;-146.25;100.00;57879.81;5074913;28;45366;-71
2021/12/12 00:17:15;;;;;;;;;0.00;0.00;;;;;-146.25;100.00;57879.81;5076112;28;45361;-70
2021/12/12 00:19:41;;;;;;;;;1.00;1.00;;;;;-146.25;100.00;57879.81;5076238;27;45361;-71
2021/12/12 00:22:21;;;;;;;;;0.00;0.00;;;;;-146.25;100.00;57879.81;5074838;28;45550;-71
2021/12/12 00:24:47;;;;;;;;;0.00;0.00;;;;;-146.25;100.00;57879.81;5074484;28;45488;-71
2021/12/12 00:27:13;;;;;;;;;0.00;0.00;;;;;-146.25;100.00;57879.81;5076111;27;45952;-71
2021/12/12 00:29:39;;;;;;;;;0.00;0.00;;;;;-146.25;100.00;57879.81;5076197;27;45306;-71
2021/12/12 00:32:10;;;;;;;;;0.00;0.00;;;;;-146.25;100.00;57879.81;5076293;27;45345;-71
2021/12/12 00:34:43;;;;;;;;;0.00;0.00;;;;;-146.25;100.00;57879.81;5076399;27;45409;-71
2021/12/12 00:37:09;;;;;;;;;1.00;1.00;;;;;-146.25;100.00;57879.81;5074312;28;46026;-71
2021/12/12 00:39:40;;;;;;;;;2.00;2.00;;;;;-146.25;100.00;57879.81;5075903;28;45364;-71
2021/12/12 00:42:10;;;;;;;;;6.67;5.67;;;;;-146.25;100.00;57879.81;5073758;28;45145;-70
2021/12/12 00:44:39;;;;;;;;;5.00;5.00;;;;;-146.25;100.00;57879.81;5076127;27;45409;-71
2021/12/12 00:47:07;;;;;;;;;4.00;3.67;;;;;-146.25;100.00;57879.81;5073250;28;45729;-71
2021/12/12 00:49:35;;;;;;;;;4.33;4.00;;;;;-146.25;100.00;57879.81;5075689;27;45459;-71
2021/12/12 00:52:03;;;;;;;;;2.67;2.67;;;;;-146.25;100.00;57879.81;5075731;27;45392;-71
2021/12/12 00:54:31;;;;;;;;;1.00;1.00;;;;;-146.25;100.00;57879.81;5076063;27;45461;-71
2021/12/12 00:57:03;;;;;;;;;0.00;0.00;;;;;-146.25;100.00;57879.81;5075552;27;46120;-71
2021/12/12 00:59:29;;;;;;;;;15.00;13.67;;;;;-146.25;100.00;57879.81;5073896;28;45512;-71
2021/12/12 01:01:55;;;;;;;;;24.75;22.75;;;;;-146.25;100.00;57879.81;5075617;27;45433;-70
2021/12/12 01:04:23;;;;;;;;;25.50;22.25;;;;;-146.25;100.00;57879.81;5076213;27;46158;-70
2021/12/12 01:06:50;;;;;;;;;3.00;3.00;;;;;-146.25;100.00;57879.81;5076135;27;46307;-70
2021/12/12 01:09:24;;;;;;;;;2.33;1.67;;;;;-146.25;100.00;57879.81;5075405;28;45396;-72
2021/12/12 01:11:54;;;;;;;;;3.67;2.00;;;;;-146.25;100.00;57879.81;5074292;28;45537;-71
2021/12/12 01:14:28;;;;;;;;;1.00;1.00;;;;;-146.25;100.00;57879.81;5076182;27;45495;-71
2021/12/12 01:17:18;;;;;;;;;0.67;0.67;;;;;-146.25;100.00;57879.81;5075743;27;46080;-72
2021/12/12 01:19:54;;;;;;;;;0.33;0.00;;;;;-146.25;100.00;57879.81;5072880;28;45352;-72
2021/12/12 01:22:27;;;;;;;;;1.00;0.33;;;;;-146.25;100.00;57879.81;5077911;27;45404;-71
2021/12/12 01:24:55;;;;;;;;;2.00;1.67;;;;;-146.25;100.00;57879.81;5078146;28;45515;-72
2021/12/12 01:27:22;;;;;;;;;0.00;0.00;;;;;-146.25;100.00;57879.81;5078990;28;45452;-71
2021/12/12 01:29:49;;;;;;;;;0.00;0.00;;;;;-146.25;100.00;57879.81;5079294;27;45574;-71
2021/12/12 01:32:25;;;;;;;;;0.00;0.00;;;;;-146.25;100.00;57879.81;5079071;27;45453;-71
2021/12/12 01:34:51;;;;;;;;;1.00;1.00;;;;;-146.25;100.00;57879.81;5080522;28;45402;-72
2021/12/12 01:40:06;;;;;;;;;1.00;1.00;;;;;-146.25;100.00;57879.81;5077591;28;45646;-71
2021/12/12 01:42:42;;;;;;;;;0.33;0.00;;;;;-146.25;100.00;57879.81;5077580;28;45522;-71
2021/12/12 01:45:20;;;;;;;;;10.33;8.33;;;;;-146.25;100.00;57879.81;5076614;28;45542;-72
2021/12/12 01:47:55;;;;;;;;;5.67;4.00;;;;;-146.25;100.00;57879.81;5075871;28;46031;-72
2021/12/12 01:50:30;;;;;;;;;12.25;11.75;;;;;-146.25;100.00;57879.81;5078944;27;45211;-71
2021/12/12 01:52:58;;;;;;;;;12.75;12.75;;;;;-146.25;100.00;57879.81;5078717;27;45572;-71
2021/12/12 01:55:34;;;;;;;;;14.50;13.00;;;;;-146.25;100.00;57879.81;5076030;28;45350;-71
2021/12/12 01:58:07;;;;;;;;;8.00;5.67;;;;;-146.25;100.00;57879.81;5078274;27;45397;-72
2021/12/12 02:00:34;;;;;;;;;1.33;1.00;;;;;-146.25;100.00;57879.81;5077190;28;45580;-71
2021/12/12 02:03:03;;;;;;;;;2.00;1.00;;;;;-146.25;100.00;57879.81;5078376;27;45389;-72
2021/12/12 02:05:30;;;;;;;;;1.00;1.00;;;;;-146.25;100.00;57879.81;5078476;27;45259;-72
2021/12/12 02:08:00;;;;;;;;;1.00;1.00;;;;;-146.25;100.00;57879.81;5077900;27;45440;-72
2021/12/12 02:10:33;;;;;;;;;0.67;0.33;;;;;-146.25;100.00;57879.81;5072975;28;45520;-70
2021/12/12 02:13:08;;;;;;;;;0.00;0.00;;;;;-146.25;100.00;57879.81;5078304;27;45480;-70
2021/12/12 02:15:37;;;;;;;;;47.00;37.75;;;;;-146.25;100.00;57879.81;5078314;27;45502;-70
2021/12/12 02:18:10;;;;;;;;;16.75;16.00;;;;;-146.25;100.00;57879.81;5077904;27;46400;-71
2021/12/12 02:20:53;;;;;;;;;24.00;21.50;;;;;-146.25;100.00;57879.81;5078036;27;45325;-71
2021/12/12 02:37:07;;;;;;;;;2.33;2.33;;;;;-146.25;100.00;57879.81;5075553;28;45538;-71
2021/12/12 02:39:34;;;;;;;;;5.00;4.00;;;;;-146.25;100.00;57879.81;5077690;27;46201;-71
2021/12/12 02:42:05;;;;;;;;;15.50;14.75;;;;;-146.25;100.00;57879.81;5077768;27;45366;-71
2021/12/12 02:44:33;;;;;;;;;11.00;11.00;;;;;-146.25;100.00;57879.81;5078100;27;45464;-72
2021/12/12 02:47:08;;;;;;;;;2.00;2.00;;;;;-146.25;100.00;57879.81;5078117;27;45474;-71
2021/12/12 02:49:53;;;;;;;;;1.00;0.33;;;;;-146.25;100.00;57879.81;5077740;27;46258;-71
2021/12/12 02:52:31;;;;;;;;;2.00;1.67;;;;;-146.25;100.00;57879.81;5077315;28;45611;-71
2021/12/12 02:55:00;;;;;;;;;1.00;0.33;;;;;-146.25;100.00;57879.81;5077943;27;45578;-71
2021/12/12 02:57:26;;;;;;;;;1.00;0.33;;;;;-146.25;100.00;57879.81;5075379;28;45403;-72
2021/12/12 02:59:52;;;;;;;;;1.00;0.00;;;;;-146.25;100.00;57879.81;5077762;27;45375;-71
2021/12/12 03:02:26;;;;;;;;;0.67;0.67;;;;;-146.25;100.00;57879.81;5077636;27;45326;-71
2021/12/12 03:04:55;;;;;;;;;0.33;0.33;;;;;-146.25;100.00;57879.81;5076180;28;45467;-71
2021/12/12 03:07:22;;;;;;;;;2.00;1.00;;;;;-146.25;100.00;57879.81;5077798;27;45547;-70
2021/12/12 03:09:54;;;;;;;;;1.00;0.00;;;;;-146.25;100.00;57879.81;5077381;27;45588;-71
2021/12/12 03:12:33;;;;;;;;;1.00;1.00;;;;;-146.25;100.00;57879.81;5077582;27;45380;-70
2021/12/12 03:15:13;;;;;;;;;0.00;0.00;;;;;-146.25;100.00;57879.81;5077303;27;45543;-70
2021/12/12 03:17:41;;;;;;;;;0.00;0.00;;;;;-146.25;100.00;57879.81;5076759;28;46084;-71
2021/12/12 03:20:24;;;;;;;;;0.00;0.00;;;;;-146.25;100.00;57879.81;5074799;28;45562;-70
2021/12/12 03:22:59;;;;;;;;;0.00;0.00;;;;;-146.25;100.00;57879.81;5075636;28;45639;-71
2021/12/12 03:25:26;;;;;;;;;0.00;0.00;;;;;-146.25;100.00;57879.81;5074619;28;45336;-71
2021/12/12 03:27:52;;;;;;;;;1.00;0.00;;;;;-146.25;100.00;57879.81;5077695;27;45454;-71
2021/12/12 03:30:19;;;;;;;;;0.67;0.67;;;;;-146.25;100.00;57879.81;5077150;28;46224;-71
2021/12/12 03:32:45;;;;;;;;;1.00;1.00;;;;;-146.25;100.00;57879.81;5074129;28;45571;-71
2021/12/12 03:35:11;;;;;;;;;2.00;2.00;;;;;-146.25;100.00;57879.81;5077292;27;45408;-71
2021/12/12 03:37:38;;;;;;;;;1.00;1.00;;;;;-146.25;100.00;57879.81;5077168;27;45497;-71
2021/12/12 03:40:17;;;;;;;;;3.00;1.67;;;;;-146.25;100.00;57879.81;5076687;27;45365;-71
2021/12/12 03:42:46;;;;;;;;;1.00;1.00;;;;;-146.25;100.00;57879.81;5076612;27;45574;-71
2021/12/12 03:45:14;;;;;;;;;0.00;0.00;;;;;-146.25;100.00;57879.81;5076411;27;45393;-71
2021/12/12 03:47:45;;;;;;;;;2.00;0.00;;;;;-146.25;100.00;57879.81;5075733;28;45569;-71
2021/12/12 03:50:18;;;;;;;;;0.00;0.00;;;;;-146.25;100.00;57879.81;5076759;27;45427;-71
2021/12/12 03:52:44;;;;;;;;;1.00;0.00;;;;;-146.25;100.00;57879.81;5076738;27;45902;-71
2021/12/12 03:55:11;;;;;;;;;0.33;0.00;;;;;-146.25;100.00;57879.81;5076929;27;45366;-71
2021/12/12 03:57:37;;;;;;;;;0.00;0.00;;;;;-146.25;100.00;57879.81;5076967;27;45425;-71
2021/12/12 04:00:06;;;;;;;;;0.00;0.00;;;;;-146.25;100.00;57879.81;5076291;27;45410;-71
2021/12/12 04:02:32;;;;;;;;;0.00;0.00;;;;;-146.25;100.00;57879.81;5076401;27;45587;-71
2021/12/12 04:04:58;;;;;;;;;0.00;0.00;;;;;-146.25;100.00;57879.81;5076375;28;45600;-71
2021/12/12 04:07:26;;;;;;;;;0.00;0.00;;;;;-146.25;100.00;57879.81;5076903;27;45575;-71
2021/12/12 04:09:53;;;;;;;;;2.00;0.00;;;;;-146.25;100.00;57879.81;5076634;27;46157;-71
2021/12/12 04:12:22;;;;;;;;;2.67;2.00;;;;;-146.25;100.00;57879.81;5076498;27;45408;-71
2021/12/12 04:14:50;;;;;;;;;1.00;1.00;;;;;-146.25;100.00;57879.81;5073956;28;45428;-71
2021/12/12 04:17:20;;;;;;;;;0.00;0.00;;;;;-146.25;100.00;57879.81;5076755;27;45374;-71
2021/12/12 04:19:48;;;;;;;;;1.00;0.67;;;;;-146.25;100.00;57879.81;5073460;28;46049;-71
2021/12/12 04:22:14;;;;;;;;;0.00;0.00;;;;;-146.25;100.00;57879.81;5077254;27;45537;-72
2021/12/12 04:24:43;;;;;;;;;1.00;0.00;;;;;-146.25;100.00;57879.81;5077794;27;45390;-71
2021/12/12 04:27:11;;;;;;;;;0.67;0.00;;;;;-146.25;100.00;57879.81;5077988;27;45477;-71
2021/12/12 04:29:41;;;;;;;;;0.33;0.00;;;;;-146.25;100.00;57879.81;5077591;27;45357;-73
2021/12/12 04:32:11;;;;;;;;;0.00;0.00;;;;;-146.25;100.00;57879.81;5077715;27;45463;-71
2021/12/12 04:34:40;;;;;;;;;0.00;0.00;;;;;-146.25;100.00;57879.81;5077997;27;45425;-70
2021/12/12 04:37:07;;;;;;;;;1.00;0.00;;;;;-146.25;100.00;57879.81;5077993;27;45530;-71
2021/12/12 04:39:43;;;;;;;;;0.33;0.00;;;;;-146.25;100.00;57879.81;5077521;27;46358;-71
2021/12/12 04:42:12;;;;;;;;;6.00;0.00;;;;;-146.25;100.00;57879.81;5077769;27;45238;-71
2021/12/12 04:44:40;;;;;;;;;2.67;0.00;;;;;-146.25;100.00;57879.81;5077680;27;45468;-71
2021/12/12 04:50:59;;;;;;;;;0.67;0.00;;;;;-146.25;100.00;57879.81;5079287;28;45571;-71
2021/12/12 04:53:51;;;;;;;;;0.00;0.00;;;;;-146.25;100.00;57879.81;5077927;27;45659;-71
2021/12/12 04:56:22;;;;;;;;;1.00;1.00;;;;;-146.25;100.00;57879.81;5076427;28;45348;-71
2021/12/12 04:58:54;;;;;;;;;2.00;0.00;;;;;-146.25;100.00;57879.81;5077773;27;45631;-72
2021/12/12 05:01:25;;;;;;;;;0.00;0.00;;;;;-146.25;100.00;57879.81;5077268;28;45416;-71
2021/12/12 05:04:01;;;;;;;;;1.33;1.33;;;;;-146.25;100.00;57879.81;5077355;27;45238;-71
2021/12/12 05:06:26;;;;;;;;;0.67;0.67;;;;;-146.25;100.00;57879.81;5077743;27;45472;-71
2021/12/12 05:09:23;;;;;;;;;1.00;1.00;;;;;-146.25;100.00;57879.81;5077716;27;45542;-72
2021/12/12 05:12:00;;;;;;;;;1.00;1.00;;;;;-146.25;100.00;57879.81;5077253;27;46115;-71
2021/12/12 05:14:33;;;;;;;;;1.33;1.00;;;;;-146.25;100.00;57879.81;5077518;28;45263;-71
2021/12/12 05:17:13;;;;;;;;;0.00;0.00;;;;;-146.25;100.00;57879.81;5077415;27;45407;-71
2021/12/12 05:19:45;;;;;;;;;3.25;3.25;;;;;-146.25;100.00;57879.81;5075999;28;45546;-71
2021/12/12 05:22:20;;;;;;;;;2.67;2.67;;;;;-146.25;100.00;57879.81;5076869;27;45507;-72
2021/12/12 05:24:50;;;;;;;;;5.33;5.00;;;;;-146.25;100.00;57879.81;5077000;27;45516;-73
2021/12/12 05:27:20;;;;;;;;;5.00;3.33;;;;;-146.25;100.00;57879.81;5077046;27;45417;-72
2021/12/12 05:29:55;;;;;;;;;1.67;1.67;;;;;-146.25;100.00;57879.81;5077214;27;45362;-72
2021/12/12 05:32:22;;;;;;;;;1.00;0.00;;;;;-146.25;100.00;57879.81;5076749;28;45513;-71
2021/12/12 05:34:50;;;;;;;;;0.33;0.33;;;;;-146.25;100.00;57879.81;5077024;27;45310;-72
2021/12/12 05:37:18;;;;;;;;;1.00;1.00;;;;;-146.25;100.00;57879.81;5075892;28;45417;-72
2021/12/12 05:39:44;;;;;;;;;1.00;1.00;;;;;-146.25;100.00;57879.81;5077156;28;45502;-72
2021/12/12 05:42:11;;;;;;;;;2.00;1.00;;;;;-146.25;100.00;57879.81;5076592;28;45491;-74
2021/12/12 05:44:37;;;;;;;;;1.00;1.00;;;;;-146.25;100.00;57879.81;5076726;27;45342;-72
2021/12/12 05:47:06;;;;;;;;;0.00;0.00;;;;;-146.25;100.00;57879.81;5076901;28;45396;-72
2021/12/12 05:49:33;;;;;;;;;0.67;0.00;;;;;-146.25;100.00;57879.81;5076894;27;45634;-71
2021/12/12 05:52:05;;;;;;;;;1.00;0.00;;;;;-146.25;100.00;57879.81;5076973;27;46232;-72
2021/12/12 05:54:31;;;;;;;;;0.67;0.00;;;;;-146.25;100.00;57879.81;5076785;28;45423;-72
2021/12/12 05:56:59;;;;;;;;;0.00;0.00;;;;;-146.25;100.00;57879.81;5076969;28;45349;-72
2021/12/12 05:59:25;;;;;;;;;0.00;0.00;;;;;-146.25;100.00;57879.81;5076950;28;45480;-72
2021/12/12 06:01:51;;;;;;;;;0.67;0.67;;;;;-146.25;100.00;57879.81;5075108;28;47786;-72
2021/12/12 06:04:18;;;;;;;;;1.00;0.00;;;;;-146.25;100.00;57879.81;5076495;27;45360;-72
2021/12/12 06:06:44;;;;;;;;;0.00;0.00;;;;;-146.25;100.00;57879.81;5092518;27;45524;-72
2021/12/12 06:09:12;;;;;;;;;0.00;0.00;;;;;-146.25;100.00;57879.81;5080084;28;45721;-72
2021/12/12 06:11:41;;;;;;;;;2.00;0.00;;;;;-146.25;100.00;57879.81;5079938;27;46115;-72
2021/12/12 06:14:08;;;;;;;;;0.00;0.00;;;;;-146.25;100.00;57879.81;5080049;28;45194;-72
2021/12/12 06:16:36;;;;;;;;;0.00;0.00;;;;;-146.25;100.00;57879.81;5080137;27;45514;-72
2021/12/12 06:19:10;;;;;;;;;6.75;6.75;;;;;-146.25;100.00;57879.81;5080233;27;45457;-72
2021/12/12 06:21:36;;;;;;;;;6.00;6.00;;;;;-146.25;100.00;57879.81;5079776;27;45258;-72
2021/12/12 06:24:04;;;;;;;;;5.00;4.33;;;;;-146.25;100.00;57879.81;5079870;27;45433;-72
2021/12/12 06:26:30;;;;;;;;;3.00;3.00;;;;;-146.25;100.00;57879.81;5080241;28;45278;-71
2021/12/12 06:28:56;;;;;;;;;2.00;2.00;;;;;-146.25;100.00;57879.81;5080120;27;45293;-72
2021/12/12 06:31:22;;;;;;;;;1.00;1.00;;;;;-146.25;100.00;57879.81;5079564;27;45473;-72
2021/12/12 06:33:47;;;;;;;;;1.00;0.00;;;;;-146.25;100.00;57879.81;5079572;28;45310;-75
2021/12/12 06:36:14;;;;;;;;;1.67;1.67;;;;;-146.25;100.00;57879.81;5079794;27;45285;-73
2021/12/12 06:38:43;;;;;;;;;1.00;1.00;;;;;-146.25;100.00;57879.81;5079950;27;45437;-74
2021/12/12 06:41:09;;;;;;;;;1.00;1.00;;;;;-146.25;100.00;57879.81;5079348;27;46116;-72
2021/12/12 06:43:36;;;;;;;;;1.67;1.00;;;;;-146.25;100.00;57879.81;5079404;27;45349;-72
2021/12/12 06:46:04;;;;;;;;;0.00;0.00;;;;;-146.25;100.00;57879.81;5080001;27;45396;-73
2021/12/12 06:48:30;;;;;;;;;0.00;0.00;;;;;-146.25;100.00;57879.81;5080015;28;45235;-72
2021/12/12 06:50:57;;;;;;;;;41.50;34.75;;;;;-146.25;100.00;57879.81;5079200;27;45585;-72
2021/12/12 06:53:28;;;;;;;;;50.25;41.50;;;;;-146.25;100.00;57879.81;5079255;27;45432;-72
2021/12/12 06:55:56;;;;;;;;;32.50;30.25;;;;;-146.25;100.00;57879.81;5079266;27;45195;-72
2021/12/12 06:58:26;;;;;;;;;5.00;4.33;;;;;-146.25;100.00;57879.81;5079705;27;45336;-72
2021/12/12 07:00:57;;;;;;;;;12.67;11.67;;;;;-146.25;100.00;57879.81;5079199;27;46035;-72
2021/12/12 07:03:23;;;;;;;;;6.67;5.67;;;;;-146.25;100.00;57879.81;5079139;27;45509;-72
2021/12/12 07:05:49;;;;;;;;;6.33;6.00;;;;;-146.25;100.00;57879.81;5094964;27;45374;-72
2021/12/12 07:08:17;;;;;;;;;5.00;4.00;;;;;-146.25;100.00;57879.81;5079364;27;45314;-72
2021/12/12 07:10:44;;;;;;;;;2.00;2.00;;;;;-146.25;100.00;57879.81;5078879;28;45620;-72
2021/12/12 07:13:10;;;;;;;;;0.67;0.67;;;;;-146.25;100.00;57879.81;5079014;27;45401;-76
2021/12/12 07:15:51;;;;;;;;;4.67;4.67;;;;;-146.25;100.00;57879.81;5079281;27;45492;-72
2021/12/12 07:18:21;;;;;;;;;6.00;6.00;;;;;-146.25;100.00;57879.81;5079173;27;45531;-72
2021/12/12 07:20:49;;;;;;;;;5.00;4.00;;;;;-146.25;100.00;57879.81;5077588;28;45453;-74
2021/12/12 07:23:15;;;;;;;;;1.00;1.00;;;;;-146.25;100.00;57879.81;5078078;27;45404;-73
2021/12/12 07:25:43;;;;;;;;;2.00;1.00;;;;;-146.25;100.00;57879.81;5078013;27;45306;-71
2021/12/12 07:28:09;;;;;;;;;1.67;1.00;;;;;-146.25;100.00;57879.81;5078095;27;45321;-73
2021/12/12 07:30:36;;;;;;;;;1.00;1.00;;;;;-146.25;100.00;57879.81;5078114;27;45881;-71
2021/12/12 07:33:05;;;;;;;;;2.00;1.67;;;;;-146.25;100.00;57879.81;5085524;27;46715;-71
2021/12/12 07:35:37;;;;;;;;;1.67;1.67;;;;;-146.25;100.00;57879.81;5078423;27;45535;-71
2021/12/12 07:38:07;;;;;;;;;3.00;2.00;;;;;-146.25;100.00;57879.81;5076496;28;45441;-71
2021/12/12 07:40:34;;;;;;;;;3.00;2.00;;;;;-146.25;100.00;57879.81;5077735;27;46048;-71
2021/12/12 07:43:00;;;;;;;;;14.00;13.50;;;;;-146.25;100.00;57879.81;5077639;27;45314;-72
2021/12/12 07:45:26;;;;;;;;;7.00;6.75;;;;;-146.25;100.00;57879.81;5077906;28;45325;-73
2021/12/12 07:47:53;;;;;;;;;6.00;5.33;;;;;-146.25;100.00;57879.81;5077768;27;45611;-73
2021/12/12 07:50:25;;;;;;;;;3.00;3.00;;;;;-146.25;100.00;57879.81;5077590;28;46145;-72
2021/12/12 07:52:51;;;;;;;;;3.33;3.00;;;;;-146.25;100.00;57879.81;5077597;28;45235;-71
2021/12/12 07:55:18;;;;;;;;;2.33;2.33;;;;;-146.25;100.00;57879.81;5071703;27;45406;-76
2021/12/12 07:57:44;;;;;;;;;4.67;3.67;;;;;-146.25;100.00;57879.81;5074989;27;45852;-73
2021/12/12 08:00:17;;;;;;;;;6.33;5.00;;;;;-146.25;100.00;57879.81;5081974;27;45533;-73
2021/12/12 08:02:45;;;;;;;;;7.00;5.00;;;;;-146.25;100.00;57879.81;5085589;28;45606;-73
2021/12/12 08:05:15;;;;;;;;;7.67;5.67;;;;;-146.25;100.00;57879.81;5077505;28;45374;-73
2021/12/12 08:07:41;;;;;;;;;6.00;4.67;;;;;-146.25;100.00;57879.81;5075251;28;45238;-72
2021/12/12 08:10:09;;;;;;;;;8.33;2.33;;;;;-146.25;100.00;57879.81;5076710;27;48009;-73
2021/12/12 08:12:35;;;;;;;;;4.00;3.00;;;;;-146.25;100.00;57879.81;5076539;27;45374;-73
2021/12/12 08:15:07;;;;;;;;;5.67;4.00;;;;;-146.25;100.00;57879.81;5076560;27;45317;-72
2021/12/12 08:17:33;;;;;;;;;7.67;5.00;;;;;-146.25;100.00;57879.81;5076735;27;45647;-72
2021/12/12 08:19:59;;;;;;;;;6.67;5.33;;;;;-146.25;100.00;57879.81;5076575;27;45525;-72
2021/12/12 08:22:27;;;;;;;;;10.67;5.00;;;;;-146.25;100.00;57879.81;5076476;27;45498;-73
2021/12/12 08:24:57;;;;;;;;;6.00;4.00;;;;;-146.25;100.00;57879.81;5076677;27;45323;-73
2021/12/12 08:27:23;;;;;;;;;8.00;4.67;;;;;-146.25;100.00;57879.81;5076727;27;45498;-74
2021/12/12 08:29:49;;;;;;;;;4.00;2.33;;;;;-146.25;100.00;57879.81;5075961;27;46019;-72
2021/12/12 08:32:15;;;;;;;;;3.33;2.00;;;;;-146.25;100.00;57879.81;5075699;27;45422;-71
2021/12/12 08:34:41;;;;;;;;;16.25;13.25;;;;;-146.25;100.00;57879.81;5075889;28;45452;-73
2021/12/12 08:37:08;;;;;;;;;8.00;4.67;;;;;-146.25;100.00;57879.81;5076789;27;45522;-72
2021/12/12 08:39:35;;;;;;;;;37.00;31.75;;;;;-146.25;100.00;57879.81;5076030;27;46123;-68
2021/12/12 08:42:03;;;;;;;;;6.67;5.67;;;;;-146.25;100.00;57879.81;5076217;27;45433;-67
2021/12/12 08:44:30;;;;;;;;;1.00;1.00;;;;;-146.25;100.00;57879.81;5076813;27;45279;-69
2021/12/12 08:46:58;;;;;;;;;2.00;1.50;;;;;-146.25;100.00;57879.81;5077538;27;45390;-69
2021/12/12 08:49:28;;;;;;;;;3.00;2.00;;;;;-146.25;100.00;57879.81;5076481;27;45491;-70
2021/12/12 08:52:00;;;;;;;;;3.00;1.00;;;;;-146.25;100.00;57879.81;5075763;27;45540;-71
2021/12/12 08:54:28;;;;;;;;;1.00;0.67;;;;;-146.25;100.00;57879.81;5076480;27;45387;-70
2021/12/12 08:57:10;;;;;;;;;9.67;8.00;;;;;-146.25;100.00;57879.81;5076528;27;45411;-71
2021/12/12 08:59:39;;;;;;;;;5.00;3.00;;;;;-146.25;100.00;57879.81;5076200;27;45412;-70
2021/12/12 09:02:09;;;;;;;;;3.67;3.00;;;;;-146.25;100.00;57879.81;5076781;27;45468;-71
2021/12/12 09:04:42;;;;;;;;;18.00;15.00;;;;;-146.25;100.00;57879.81;5076060;28;45478;-73
2021/12/12 09:07:24;;;;;;;;;3.00;2.67;;;;;-146.25;100.00;57879.81;5076701;27;45464;-71
2021/12/12 09:10:03;;;;;;;;;3.00;2.00;;;;;-146.25;100.00;57879.81;5075927;27;45533;-70
2021/12/12 09:12:39;;;;;;;;;2.33;1.67;;;;;-146.25;100.00;57879.81;5076578;27;45164;-71
2021/12/12 09:15:15;;;;;;;;;7.33;4.00;;;;;-146.25;100.00;57879.81;5076610;28;45353;-71
2021/12/12 09:17:56;;;;;;;;;2.67;2.33;;;;;-146.25;100.00;57879.81;5076436;27;45533;-69
2021/12/12 09:20:32;;;;;;;;;5.33;3.33;;;;;-146.25;100.00;57879.81;5076207;27;45542;-71
2021/12/12 09:23:09;;;;;;;;;4.67;4.00;;;;;-146.25;100.00;57879.81;5075465;27;45564;-72
2021/12/12 09:25:49;;;;;;;;;2.33;1.00;;;;;-146.25;100.00;57879.81;5072596;27;45486;-72
2021/12/12 09:28:45;;;;;;;;;3.00;2.33;;;;;-146.25;100.00;57879.81;5075424;27;45507;-72
2021/12/12 09:31:17;;;;;;;;;5.00;3.00;;;;;-146.25;100.00;57879.81;5075088;28;46227;-71
2021/12/12 09:33:51;;;;;;;;;2.33;2.00;;;;;-146.25;100.00;57879.81;5074787;27;45496;-68
2021/12/12 09:36:24;;;;;;;;;4.00;4.00;;;;;-146.25;100.00;57879.81;5073332;28;45340;-72
2021/12/12 09:39:13;;;;;;;;;2.67;2.67;;;;;-146.25;100.00;57879.81;5075308;27;45601;-68
2021/12/12 09:42:09;;;;;;;;;6.00;6.00;;;;;-146.25;100.00;57879.81;5073316;28;46392;-69
2021/12/12 09:44:48;;;;;;;;;1.00;0.00;;;;;-146.25;100.00;57879.81;5076230;28;45670;-69
2021/12/12 09:47:58;;;;;;;;;1.00;0.00;;;;;-146.25;100.00;57879.81;5079407;27;45531;-69
2021/12/12 09:54:21;;;;;;;;;8.00;8.00;;;;;-146.25;100.00;57879.81;5075828;28;45823;-69
2021/12/12 09:56:53;;;;;;;;;16.00;15.33;;;;;-146.25;100.00;57879.81;5073023;28;45489;-69
2021/12/12 09:59:46;;;;;;;;;0.00;0.00;;;;;-146.25;100.00;57879.81;5078287;28;45493;-69
2021/12/12 10:02:19;;;;;;;;;0.00;0.00;;;;;-146.25;100.00;57879.81;5080592;28;45538;-68
2021/12/12 10:04:51;;;;;;;;;0.00;0.00;;;;;-146.25;100.00;57879.81;5079644;27;45449;-68
2021/12/12 10:07:34;;;;;;;;;0.00;0.00;;;;;-146.25;100.00;57879.81;5077750;28;45486;-69
2021/12/12 10:10:06;;;;;;;;;1.00;0.00;;;;;-146.25;100.00;57879.81;5077972;28;45472;-69
2021/12/12 10:12:43;;;;;;;;;1.33;1.33;;;;;-146.25;100.00;57879.81;5095626;27;45437;-69
2021/12/12 10:15:18;;;;;;;;;1.67;1.00;;;;;-146.25;100.00;57879.81;5079769;27;45590;-70
2021/12/12 10:17:46;;;;;;;;;1.00;1.00;;;;;-146.25;100.00;57879.81;5079394;27;45441;-69
2021/12/12 10:20:41;;;;;;;;;1.00;1.00;;;;;-146.25;100.00;57879.81;5080669;27;45424;-69
2021/12/12 10:23:27;;;;;;;;;1.00;1.00;;;;;-146.25;100.00;57879.81;5079640;28;45477;-70
2021/12/12 10:26:30;;;;;;;;;3.33;3.33;;;;;-146.25;100.00;57879.81;5076633;28;45496;-69
2021/12/12 10:29:06;;;;;;;;;2.00;2.00;;;;;-146.25;100.00;57879.81;5065361;28;45500;-69
2021/12/12 10:32:12;;;;;;;;;1.33;1.00;;;;;-146.25;100.00;57879.81;5076765;28;45415;-68
2021/12/12 10:34:47;;;;;;;;;3.00;2.00;;;;;-146.25;100.00;57879.81;5069220;27;45629;-72
2021/12/12 10:37:23;;;;;;;;;1.00;1.00;;;;;-146.25;100.00;57879.81;5078691;27;46044;-69
2021/12/12 10:39:57;;;;;;;;;3.33;1.00;;;;;-146.25;100.00;57879.81;5078667;28;45791;-70
2021/12/12 10:42:31;;;;;;;;;1.67;1.00;;;;;-146.25;100.00;57879.81;5078520;27;45311;-70
2021/12/12 10:45:06;;;;;;;;;1.00;0.67;;;;;-146.25;100.00;57879.81;5079340;27;45538;-70
2021/12/12 10:47:53;;;;;;;;;2.33;2.00;;;;;-146.25;100.00;57879.81;5079684;28;45472;-70
2021/12/12 10:50:37;;;;;;;;;3.00;3.00;;;;;-146.25;100.00;57879.81;5095085;27;45309;-70
2021/12/12 10:53:18;;;;;;;;;0.33;0.00;;;;;-146.25;100.00;57879.81;5080187;28;45693;-68
2021/12/12 10:55:47;;;;;;;;;0.67;0.00;;;;;-146.25;100.00;57879.81;5079051;28;45512;-70
2021/12/12 10:58:15;;;;;;;;;1.00;1.00;;;;;-146.25;100.00;57879.81;5079961;27;45547;-69
2021/12/12 11:00:57;;;;;;;;;0.00;0.00;;;;;-146.25;100.00;57879.81;5078677;27;45719;-70
2021/12/12 11:03:31;;;;;;;;;0.00;0.00;;;;;-146.25;100.00;57879.81;5091920;27;45465;-70
2021/12/12 11:06:03;;;;;;;;;2.00;0.67;;;;;-146.25;100.00;57879.81;5079487;27;45551;-68
2021/12/12 11:08:48;;;;;;;;;2.67;2.67;;;;;-146.25;100.00;57879.81;5079243;27;46223;-71
2021/12/12 11:11:20;;;;;;;;;4.33;4.33;;;;;-146.25;100.00;57879.81;5079720;28;45455;-68
2021/12/12 11:13:49;;;;;;;;;5.00;5.00;;;;;-146.25;100.00;57879.81;5076701;28;45429;-68
2021/12/12 11:16:26;;;;;;;;;4.33;4.33;;;;;-146.25;100.00;57879.81;5080259;27;45642;-70
2021/12/12 11:19:00;;;;;;;;;6.00;6.00;;;;;-146.25;100.00;57879.81;5078642;28;45346;-69
2021/12/12 11:21:33;;;;;;;;;4.00;4.00;;;;;-146.25;100.00;57879.81;5077294;28;45635;-70
2021/12/12 11:24:08;;;;;;;;;1.67;1.67;;;;;-146.25;100.00;57879.81;5079775;28;45412;-71
2021/12/12 11:26:55;;;;;;;;;2.33;1.67;;;;;-146.25;100.00;57879.81;5080714;27;45321;-72
2021/12/12 11:29:37;;;;;;;;;1.67;1.67;;;;;-146.25;100.00;57879.81;5087701;27;46224;-71
2021/12/12 11:32:18;;;;;;;;;4.00;3.00;;;;;-146.25;100.00;57879.81;5077814;28;45588;-70
2021/12/12 11:34:46;;;;;;;;;2.33;2.33;;;;;-146.25;100.00;57879.81;5080005;27;45543;-70
2021/12/12 11:37:36;;;;;;;;;2.00;2.00;;;;;-146.25;100.00;57879.81;5078494;28;45342;-72
2021/12/12 11:40:26;;;;;;;;;8.67;7.00;;;;;-146.25;100.00;57879.81;5078397;27;46157;-70
2021/12/12 11:42:59;;;;;;;;;5.00;5.00;;;;;-146.25;100.00;57879.81;5078577;27;45703;-70
2021/12/12 11:45:38;;;;;;;;;5.67;5.00;;;;;-146.25;100.00;57879.81;5078485;27;45468;-70
2021/12/12 11:48:12;;;;;;;;;4.67;4.67;;;;;-146.25;100.00;57879.81;5078454;27;45560;-70
2021/12/12 11:50:46;;;;;;;;;4.67;3.67;;;;;-146.25;100.00;57879.81;5078583;27;45389;-70
2021/12/12 11:53:44;;;;;;;;;6.00;4.00;;;;;-146.25;100.00;57879.81;5078453;27;45344;-70